sensor_id;sensor_type;location;lat;lon;timestamp;pressure;altitude;pressure_sealevel;temperature;humidity
6393;BME280;3229;42.674;23.282;2022-08-02T00:00:16;94523.59;;;23.07;49.75
6393;BME280;3229;42.674;23.282;2022-08-02T00:02:44;94495.69;;;22.89;50.02
6393;BME280;3229;42.674;23.282;2022-08-02T00:05:14;94321.66;;;21.81;49.87
6393;BME280;3229;42.674;23.282;2022-08-02T00:07:42;94505.97;;;23.02;50.17
6393;BME280;3229;42.674;23.282;2022-08-02T00:10:10;94511.41;;;23.00;50.35
6393;BME280;3229;42.674;23.282;2022-08-02T00:12:38;94405.91;;;22.29;50.22
6393;BME280;3229;42.674;23.282;2022-08-02T00:15:07;94505.50;;;22.93;50.03
6393;BME280;3229;42.674;23.282;2022-08-02T00:17:35;94518.28;;;22.95;50.18
6393;BME280;3229;42.674;23.282;2022-08-02T00:20:03;94520.34;;;22.93;50.31
6393;BME280;3229;42.674;23.282;2022-08-02T00:22:31;94514.31;;;22.92;50.38
6393;BME280;3229;42.674;23.282;2022-08-02T00:25:00;94510.09;;;22.91;50.44
6393;BME280;3229;42.674;23.282;2022-08-02T00:27:27;94512.94;;;22.90;50.21
6393;BME280;3229;42.674;23.282;2022-08-02T00:29:55;94308.22;;;21.59;50.25
6393;BME280;3229;42.674;23.282;2022-08-02T00:32:22;94215.34;;;20.97;50.24
6393;BME280;3229;42.674;23.282;2022-08-02T00:34:49;94228.72;;;21.01;50.38
6393;BME280;3229;42.674;23.282;2022-08-02T00:37:16;94339.28;;;21.78;50.36
6393;BME280;3229;42.674;23.282;2022-08-02T00:39:44;94496.09;;;22.86;50.31
6393;BME280;3229;42.674;23.282;2022-08-02T00:42:14;94441.16;;;22.50;49.98
6393;BME280;3229;42.674;23.282;2022-08-02T00:44:41;94492.72;;;22.85;50.07
6393;BME280;3229;42.674;23.282;2022-08-02T00:47:08;94366.31;;;22.02;49.92
6393;BME280;3229;42.674;23.282;2022-08-02T00:49:36;94425.88;;;22.36;49.78
6393;BME280;3229;42.674;23.282;2022-08-02T00:52:04;94493.50;;;22.86;50.18
6393;BME280;3229;42.674;23.282;2022-08-02T00:54:31;94318.19;;;21.68;50.06
6393;BME280;3229;42.674;23.282;2022-08-02T00:56:58;94295.31;;;21.52;49.67
6393;BME280;3229;42.674;23.282;2022-08-02T00:59:27;94308.97;;;21.66;49.91
6393;BME280;3229;42.674;23.282;2022-08-02T01:01:54;94223.97;;;21.16;49.84
6393;BME280;3229;42.674;23.282;2022-08-02T01:04:21;94486.88;;;22.90;49.60
6393;BME280;3229;42.674;23.282;2022-08-02T01:06:48;94493.06;;;22.89;49.65
6393;BME280;3229;42.674;23.282;2022-08-02T01:09:16;94250.84;;;21.35;49.51
6393;BME280;3229;42.674;23.282;2022-08-02T01:11:43;94500.31;;;22.87;49.45
6393;BME280;3229;42.674;23.282;2022-08-02T01:16:44;94157.75;;;20.75;49.61
6393;BME280;3229;42.674;23.282;2022-08-02T01:19:33;94467.59;;;22.72;49.26
6393;BME280;3229;42.674;23.282;2022-08-02T01:22:37;94286.34;;;21.48;49.47
6393;BME280;3229;42.674;23.282;2022-08-02T01:25:19;94366.44;;;22.08;49.50
6393;BME280;3229;42.674;23.282;2022-08-02T01:28:19;94360.34;;;21.95;49.51
6393;BME280;3229;42.674;23.282;2022-08-02T01:30:49;94280.47;;;21.27;49.50
6393;BME280;3229;42.674;23.282;2022-08-02T01:33:20;94395.94;;;22.01;49.55
6393;BME280;3229;42.674;23.282;2022-08-02T01:35:51;94383.50;;;22.03;49.66
6393;BME280;3229;42.674;23.282;2022-08-02T01:38:22;94494.16;;;22.63;49.88
6393;BME280;3229;42.674;23.282;2022-08-02T01:40:52;94380.16;;;21.78;49.96
6393;BME280;3229;42.674;23.282;2022-08-02T01:43:24;94439.03;;;22.22;49.88
6393;BME280;3229;42.674;23.282;2022-08-02T01:45:54;94487.94;;;22.64;49.63
6393;BME280;3229;42.674;23.282;2022-08-02T01:48:23;94247.28;;;21.04;50.41
6393;BME280;3229;42.674;23.282;2022-08-02T01:50:52;94288.88;;;21.29;50.98
6393;BME280;3229;42.674;23.282;2022-08-02T01:53:20;94310.81;;;21.40;51.14
6393;BME280;3229;42.674;23.282;2022-08-02T01:55:50;94334.91;;;21.54;51.32
6393;BME280;3229;42.674;23.282;2022-08-02T01:58:19;94469.31;;;22.42;51.31
6393;BME280;3229;42.674;23.282;2022-08-02T02:00:52;94385.72;;;21.82;51.69
6393;BME280;3229;42.674;23.282;2022-08-02T02:03:24;94338.47;;;21.35;51.57
6393;BME280;3229;42.674;23.282;2022-08-02T02:05:55;94501.75;;;22.46;52.15
6393;BME280;3229;42.674;23.282;2022-08-02T02:08:26;94509.25;;;22.36;52.91
6393;BME280;3229;42.674;23.282;2022-08-02T02:10:56;94308.09;;;21.03;52.66
6393;BME280;3229;42.674;23.282;2022-08-02T02:13:24;94414.22;;;21.76;53.02
6393;BME280;3229;42.674;23.282;2022-08-02T02:15:55;94190.41;;;20.33;54.02
6393;BME280;3229;42.674;23.282;2022-08-02T02:18:24;94295.34;;;20.95;54.46
6393;BME280;3229;42.674;23.282;2022-08-02T02:20:52;94357.94;;;21.25;53.86
6393;BME280;3229;42.674;23.282;2022-08-02T02:23:21;94502.84;;;22.13;53.62
6393;BME280;3229;42.674;23.282;2022-08-02T02:25:48;94505.63;;;22.12;53.75
6393;BME280;3229;42.674;23.282;2022-08-02T02:28:21;94502.88;;;22.07;54.27
6393;BME280;3229;42.674;23.282;2022-08-02T02:30:51;94309.47;;;20.74;54.55
6393;BME280;3229;42.674;23.282;2022-08-02T02:33:23;94500.53;;;21.98;54.94
6393;BME280;3229;42.674;23.282;2022-08-02T02:35:52;94507.38;;;21.93;55.35
6393;BME280;3229;42.674;23.282;2022-08-02T02:38:19;94370.69;;;21.02;55.70
6393;BME280;3229;42.674;23.282;2022-08-02T02:40:48;94504.06;;;21.86;55.84
6393;BME280;3229;42.674;23.282;2022-08-02T02:43:16;94486.34;;;21.69;56.57
6393;BME280;3229;42.674;23.282;2022-08-02T02:45:44;94166.03;;;19.64;56.02
6393;BME280;3229;42.674;23.282;2022-08-02T02:48:12;94339.09;;;20.73;56.27
6393;BME280;3229;42.674;23.282;2022-08-02T02:50:43;94124.03;;;19.36;56.68
6393;BME280;3229;42.674;23.282;2022-08-02T02:53:16;94417.00;;;21.18;56.73
6393;BME280;3229;42.674;23.282;2022-08-02T02:55:45;94495.56;;;21.65;57.14
6393;BME280;3229;42.674;23.282;2022-08-02T02:58:13;94287.34;;;20.27;57.17
6393;BME280;3229;42.674;23.282;2022-08-02T03:00:41;94211.06;;;19.76;57.35
6393;BME280;3229;42.674;23.282;2022-08-02T03:03:26;94500.66;;;21.53;57.49
6393;BME280;3229;42.674;23.282;2022-08-02T03:05:56;94396.22;;;20.80;57.26
6393;BME280;3229;42.674;23.282;2022-08-02T03:08:23;94495.50;;;21.47;57.47
6393;BME280;3229;42.674;23.282;2022-08-02T03:10:50;94244.00;;;19.76;57.78
6393;BME280;3229;42.674;23.282;2022-08-02T03:13:18;94383.09;;;20.68;58.11
6393;BME280;3229;42.674;23.282;2022-08-02T03:15:46;94427.00;;;20.83;58.11
6393;BME280;3229;42.674;23.282;2022-08-02T03:18:30;94294.00;;;20.03;58.45
6393;BME280;3229;42.674;23.282;2022-08-02T03:21:00;94388.09;;;20.63;58.53
6393;BME280;3229;42.674;23.282;2022-08-02T03:23:28;94471.66;;;21.12;58.38
6393;BME280;3229;42.674;23.282;2022-08-02T03:25:58;94361.81;;;20.40;58.68
6393;BME280;3229;42.674;23.282;2022-08-02T03:28:26;94506.66;;;21.16;58.16
6393;BME280;3229;42.674;23.282;2022-08-02T03:30:53;94286.50;;;19.82;57.65
6393;BME280;3229;42.674;23.282;2022-08-02T03:33:21;94504.84;;;21.16;58.44
6393;BME280;3229;42.674;23.282;2022-08-02T03:35:50;94134.72;;;18.81;58.58
6393;BME280;3229;42.674;23.282;2022-08-02T03:38:25;94379.38;;;20.38;59.01
6393;BME280;3229;42.674;23.282;2022-08-02T03:40:53;94397.94;;;20.41;58.97
6393;BME280;3229;42.674;23.282;2022-08-02T03:43:23;94289.75;;;19.70;59.31
6393;BME280;3229;42.674;23.282;2022-08-02T03:45:51;94437.28;;;20.58;59.39
6393;BME280;3229;42.674;23.282;2022-08-02T03:48:18;94436.09;;;20.61;59.39
6393;BME280;3229;42.674;23.282;2022-08-02T03:50:47;94505.31;;;21.00;59.57
6393;BME280;3229;42.674;23.282;2022-08-02T03:53:16;94515.94;;;20.98;59.22
6393;BME280;3229;42.674;23.282;2022-08-02T03:55:46;94204.66;;;18.94;59.10
6393;BME280;3229;42.674;23.282;2022-08-02T03:58:18;94255.28;;;19.23;58.61
6393;BME280;3229;42.674;23.282;2022-08-02T04:00:48;94513.34;;;20.92;58.65
6393;BME280;3229;42.674;23.282;2022-08-02T04:03:18;94225.81;;;19.04;58.70
6393;BME280;3229;42.674;23.282;2022-08-02T04:05:46;94524.31;;;20.94;58.76
6393;BME280;3229;42.674;23.282;2022-08-02T04:08:21;94546.53;;;20.96;58.75
6393;BME280;3229;42.674;23.282;2022-08-02T04:10:52;94471.69;;;20.60;58.88
6393;BME280;3229;42.674;23.282;2022-08-02T04:13:37;94542.72;;;20.99;58.56
6393;BME280;3229;42.674;23.282;2022-08-02T04:16:09;94490.66;;;20.61;57.60
6393;BME280;3229;42.674;23.282;2022-08-02T04:18:40;94488.88;;;20.48;57.02
6393;BME280;3229;42.674;23.282;2022-08-02T04:21:14;94243.94;;;18.78;57.14
6393;BME280;3229;42.674;23.282;2022-08-02T04:23:44;94253.13;;;18.74;57.62
6393;BME280;3229;42.674;23.282;2022-08-02T04:26:20;94368.19;;;19.39;57.95
6393;BME280;3229;42.674;23.282;2022-08-02T04:28:47;94379.75;;;19.43;57.85
6393;BME280;3229;42.674;23.282;2022-08-02T04:31:16;94501.88;;;20.15;57.92
6393;BME280;3229;42.674;23.282;2022-08-02T04:33:44;94557.41;;;20.47;58.32
6393;BME280;3229;42.674;23.282;2022-08-02T04:36:12;94456.78;;;19.89;58.70
6393;BME280;3229;42.674;23.282;2022-08-02T04:38:40;94277.81;;;18.76;58.48
6393;BME280;3229;42.674;23.282;2022-08-02T04:41:07;94546.44;;;20.51;58.79
6393;BME280;3229;42.674;23.282;2022-08-02T04:43:36;94490.91;;;20.13;58.49
6393;BME280;3229;42.674;23.282;2022-08-02T04:46:04;94558.41;;;20.59;58.17
6393;BME280;3229;42.674;23.282;2022-08-02T04:48:31;94462.75;;;20.03;58.54
6393;BME280;3229;42.674;23.282;2022-08-02T04:50:58;94546.59;;;20.63;58.86
6393;BME280;3229;42.674;23.282;2022-08-02T04:53:25;94558.78;;;20.63;58.30
6393;BME280;3229;42.674;23.282;2022-08-02T04:55:52;94443.41;;;19.79;58.75
6393;BME280;3229;42.674;23.282;2022-08-02T04:58:19;94477.75;;;20.01;58.54
6393;BME280;3229;42.674;23.282;2022-08-02T05:00:48;94515.25;;;20.32;59.08
6393;BME280;3229;42.674;23.282;2022-08-02T05:03:15;94492.28;;;20.28;59.55
6393;BME280;3229;42.674;23.282;2022-08-02T05:05:42;94507.06;;;20.48;59.50
6393;BME280;3229;42.674;23.282;2022-08-02T05:08:09;94389.50;;;19.81;60.04
6393;BME280;3229;42.674;23.282;2022-08-02T05:10:35;94443.38;;;20.25;59.35
6393;BME280;3229;42.674;23.282;2022-08-02T05:13:04;94549.88;;;21.10;59.59
6393;BME280;3229;42.674;23.282;2022-08-02T05:15:31;94375.50;;;20.09;59.70
6393;BME280;3229;42.674;23.282;2022-08-02T05:18:00;94501.69;;;21.01;59.37
6393;BME280;3229;42.674;23.282;2022-08-02T05:20:28;94428.13;;;20.56;59.00
6393;BME280;3229;42.674;23.282;2022-08-02T05:22:55;94499.66;;;21.16;58.73
6393;BME280;3229;42.674;23.282;2022-08-02T05:25:22;94498.50;;;21.44;59.37
6393;BME280;3229;42.674;23.282;2022-08-02T05:27:48;94560.44;;;21.98;59.55
6393;BME280;3229;42.674;23.282;2022-08-02T05:30:16;94527.41;;;21.92;59.01
6393;BME280;3229;42.674;23.282;2022-08-02T05:32:47;94429.03;;;21.51;58.94
6393;BME280;3229;42.674;23.282;2022-08-02T05:35:22;94250.63;;;20.55;57.60
6393;BME280;3229;42.674;23.282;2022-08-02T05:37:51;94508.78;;;22.45;56.61
6393;BME280;3229;42.674;23.282;2022-08-02T05:40:19;94568.13;;;23.05;55.30
6393;BME280;3229;42.674;23.282;2022-08-02T05:42:46;94579.56;;;23.22;54.59
6393;BME280;3229;42.674;23.282;2022-08-02T05:45:13;94496.91;;;22.86;53.13
6393;BME280;3229;42.674;23.282;2022-08-02T05:47:40;94573.41;;;23.53;52.19
6393;BME280;3229;42.674;23.282;2022-08-02T05:50:08;94571.31;;;23.74;51.18
6393;BME280;3229;42.674;23.282;2022-08-02T05:52:55;94575.91;;;23.90;51.27
6393;BME280;3229;42.674;23.282;2022-08-02T05:55:33;94571.09;;;24.06;50.53
6393;BME280;3229;42.674;23.282;2022-08-02T05:58:05;94554.50;;;24.12;49.71
6393;BME280;3229;42.674;23.282;2022-08-02T06:00:33;94582.97;;;24.43;50.23
6393;BME280;3229;42.674;23.282;2022-08-02T06:03:12;94592.41;;;24.56;48.11
6393;BME280;3229;42.674;23.282;2022-08-02T06:05:49;94576.28;;;24.59;47.65
6393;BME280;3229;42.674;23.282;2022-08-02T06:08:19;94586.72;;;24.83;48.21
6393;BME280;3229;42.674;23.282;2022-08-02T06:10:50;94588.53;;;24.94;47.09
6393;BME280;3229;42.674;23.282;2022-08-02T06:13:19;94595.50;;;25.12;46.67
6393;BME280;3229;42.674;23.282;2022-08-02T06:15:50;94599.47;;;25.26;45.91
6393;BME280;3229;42.674;23.282;2022-08-02T06:18:18;94601.47;;;25.36;45.32
6393;BME280;3229;42.674;23.282;2022-08-02T06:20:48;94602.25;;;25.48;45.39
6393;BME280;3229;42.674;23.282;2022-08-02T06:23:18;94600.00;;;25.68;45.59
6393;BME280;3229;42.674;23.282;2022-08-02T06:25:49;94598.94;;;25.81;44.98
6393;BME280;3229;42.674;23.282;2022-08-02T06:28:18;94597.00;;;25.88;44.86
6393;BME280;3229;42.674;23.282;2022-08-02T06:30:45;94605.53;;;26.12;44.09
6393;BME280;3229;42.674;23.282;2022-08-02T06:33:12;94579.72;;;26.04;44.38
6393;BME280;3229;42.674;23.282;2022-08-02T06:35:44;94612.59;;;26.28;42.78
6393;BME280;3229;42.674;23.282;2022-08-02T06:38:20;94611.06;;;26.44;42.95
6393;BME280;3229;42.674;23.282;2022-08-02T06:40:52;94524.28;;;25.95;42.66
6393;BME280;3229;42.674;23.282;2022-08-02T06:43:28;94573.53;;;26.27;42.83
6393;BME280;3229;42.674;23.282;2022-08-02T06:45:56;94570.84;;;26.39;43.17
6393;BME280;3229;42.674;23.282;2022-08-02T06:48:23;94594.53;;;26.61;42.94
6393;BME280;3229;42.674;23.282;2022-08-02T06:50:50;94600.56;;;26.78;42.97
6393;BME280;3229;42.674;23.282;2022-08-02T06:53:18;94589.19;;;26.72;42.73
6393;BME280;3229;42.674;23.282;2022-08-02T06:55:45;94592.50;;;26.85;42.16
6393;BME280;3229;42.674;23.282;2022-08-02T06:58:13;94621.53;;;27.12;42.64
6393;BME280;3229;42.674;23.282;2022-08-02T07:00:41;94618.09;;;27.11;41.84
6393;BME280;3229;42.674;23.282;2022-08-02T07:03:08;94593.19;;;26.97;42.15
6393;BME280;3229;42.674;23.282;2022-08-02T07:05:35;94572.84;;;27.04;42.89
6393;BME280;3229;42.674;23.282;2022-08-02T07:08:02;94470.25;;;26.45;42.54
6393;BME280;3229;42.674;23.282;2022-08-02T07:10:30;94466.47;;;26.58;41.20
6393;BME280;3229;42.674;23.282;2022-08-02T07:12:57;94528.22;;;27.04;41.19
6393;BME280;3229;42.674;23.282;2022-08-02T07:15:24;94511.59;;;26.98;41.13
6393;BME280;3229;42.674;23.282;2022-08-02T07:17:51;94610.25;;;27.77;41.57
6393;BME280;3229;42.674;23.282;2022-08-02T07:20:18;94596.31;;;27.77;41.66
6393;BME280;3229;42.674;23.282;2022-08-02T07:22:45;94407.25;;;26.62;41.41
6393;BME280;3229;42.674;23.282;2022-08-02T07:25:12;94430.22;;;26.76;41.03
6393;BME280;3229;42.674;23.282;2022-08-02T07:27:42;94581.69;;;27.86;41.08
6393;BME280;3229;42.674;23.282;2022-08-02T07:30:10;94605.88;;;28.15;40.84
6393;BME280;3229;42.674;23.282;2022-08-02T07:32:39;94587.09;;;28.01;40.67
6393;BME280;3229;42.674;23.282;2022-08-02T07:35:08;94494.09;;;27.53;40.55
6393;BME280;3229;42.674;23.282;2022-08-02T07:37:37;94608.16;;;28.33;40.52
6393;BME280;3229;42.674;23.282;2022-08-02T07:40:09;94604.47;;;28.34;40.38
6393;BME280;3229;42.674;23.282;2022-08-02T07:42:37;94438.53;;;27.39;39.88
6393;BME280;3229;42.674;23.282;2022-08-02T07:45:06;94441.63;;;27.31;40.14
6393;BME280;3229;42.674;23.282;2022-08-02T07:47:35;94603.03;;;28.48;39.97
6393;BME280;3229;42.674;23.282;2022-08-02T07:50:02;94599.66;;;28.53;40.06
6393;BME280;3229;42.674;23.282;2022-08-02T07:52:32;94490.97;;;27.83;39.85
6393;BME280;3229;42.674;23.282;2022-08-02T07:54:59;94410.78;;;27.48;39.58
6393;BME280;3229;42.674;23.282;2022-08-02T07:57:26;94599.53;;;28.75;38.79
6393;BME280;3229;42.674;23.282;2022-08-02T07:59:53;94609.53;;;28.73;38.89
6393;BME280;3229;42.674;23.282;2022-08-02T08:02:22;94490.69;;;28.12;39.26
6393;BME280;3229;42.674;23.282;2022-08-02T08:04:49;94396.09;;;27.52;38.69
6393;BME280;3229;42.674;23.282;2022-08-02T08:07:16;94595.69;;;28.93;38.83
6393;BME280;3229;42.674;23.282;2022-08-02T08:09:43;94522.03;;;28.50;38.23
6393;BME280;3229;42.674;23.282;2022-08-02T08:12:12;94575.16;;;28.90;38.45
6393;BME280;3229;42.674;23.282;2022-08-02T08:14:40;94597.19;;;29.16;38.33
6393;BME280;3229;42.674;23.282;2022-08-02T08:17:07;94601.13;;;29.13;38.45
6393;BME280;3229;42.674;23.282;2022-08-02T08:19:39;94595.13;;;29.28;38.76
6393;BME280;3229;42.674;23.282;2022-08-02T08:22:06;94440.38;;;28.35;38.79
6393;BME280;3229;42.674;23.282;2022-08-02T08:24:33;94599.69;;;29.48;38.70
6393;BME280;3229;42.674;23.282;2022-08-02T08:27:00;94592.84;;;29.47;38.52
6393;BME280;3229;42.674;23.282;2022-08-02T08:29:27;94461.53;;;28.56;38.31
6393;BME280;3229;42.674;23.282;2022-08-02T08:31:54;94584.94;;;29.52;37.90
6393;BME280;3229;42.674;23.282;2022-08-02T08:34:21;94589.41;;;29.52;38.24
6393;BME280;3229;42.674;23.282;2022-08-02T08:36:50;94547.44;;;29.24;38.18
6393;BME280;3229;42.674;23.282;2022-08-02T08:39:16;94554.06;;;29.32;37.84
6393;BME280;3229;42.674;23.282;2022-08-02T08:41:43;94484.56;;;28.81;37.41
6393;BME280;3229;42.674;23.282;2022-08-02T08:44:11;94451.81;;;28.61;37.62
6393;BME280;3229;42.674;23.282;2022-08-02T08:46:41;94596.56;;;29.56;37.45
6393;BME280;3229;42.674;23.282;2022-08-02T08:49:14;94573.31;;;29.43;37.21
6393;BME280;3229;42.674;23.282;2022-08-02T08:51:57;94550.09;;;29.35;37.16
6393;BME280;3229;42.674;23.282;2022-08-02T08:54:29;94498.59;;;28.96;37.10
6393;BME280;3229;42.674;23.282;2022-08-02T08:56:56;94543.81;;;29.41;36.83
6393;BME280;3229;42.674;23.282;2022-08-02T08:59:25;94567.59;;;29.61;36.85
6393;BME280;3229;42.674;23.282;2022-08-02T09:02:01;94500.31;;;29.28;36.83
6393;BME280;3229;42.674;23.282;2022-08-02T09:04:28;94500.53;;;29.21;36.81
6393;BME280;3229;42.674;23.282;2022-08-02T09:06:59;94465.44;;;29.06;36.92
6393;BME280;3229;42.674;23.282;2022-08-02T09:09:26;94605.66;;;29.96;35.14
6393;BME280;3229;42.674;23.282;2022-08-02T09:12:12;94601.16;;;29.91;35.91
6393;BME280;3229;42.674;23.282;2022-08-02T09:14:42;94350.13;;;28.35;35.64
6393;BME280;3229;42.674;23.282;2022-08-02T09:17:11;94588.47;;;29.78;35.97
6393;BME280;3229;42.674;23.282;2022-08-02T09:19:39;94594.03;;;29.92;36.58
6393;BME280;3229;42.674;23.282;2022-08-02T09:22:08;94590.63;;;30.02;35.84
6393;BME280;3229;42.674;23.282;2022-08-02T09:24:44;94543.13;;;29.76;35.86
6393;BME280;3229;42.674;23.282;2022-08-02T09:27:13;94559.50;;;29.88;36.01
6393;BME280;3229;42.674;23.282;2022-08-02T09:29:44;94556.88;;;29.93;35.81
6393;BME280;3229;42.674;23.282;2022-08-02T09:32:11;94592.53;;;30.16;35.90
6393;BME280;3229;42.674;23.282;2022-08-02T09:34:47;94569.25;;;30.08;35.56
6393;BME280;3229;42.674;23.282;2022-08-02T09:37:24;94584.88;;;30.25;34.93
6393;BME280;3229;42.674;23.282;2022-08-02T09:39:52;94578.81;;;30.30;34.98
6393;BME280;3229;42.674;23.282;2022-08-02T09:42:19;94576.69;;;30.27;35.22
6393;BME280;3229;42.674;23.282;2022-08-02T09:44:55;94584.63;;;30.32;35.20
6393;BME280;3229;42.674;23.282;2022-08-02T09:47:23;94575.66;;;30.28;36.04
6393;BME280;3229;42.674;23.282;2022-08-02T09:49:51;94509.41;;;29.88;35.84
6393;BME280;3229;42.674;23.282;2022-08-02T09:52:26;94543.94;;;30.12;35.97
6393;BME280;3229;42.674;23.282;2022-08-02T09:54:54;94562.72;;;30.26;35.68
6393;BME280;3229;42.674;23.282;2022-08-02T09:57:25;94531.28;;;30.04;35.74
6393;BME280;3229;42.674;23.282;2022-08-02T09:59:54;94532.34;;;29.98;35.46
6393;BME280;3229;42.674;23.282;2022-08-02T10:02:21;94556.59;;;30.05;35.62
6393;BME280;3229;42.674;23.282;2022-08-02T10:04:48;94556.34;;;30.07;35.76
6393;BME280;3229;42.674;23.282;2022-08-02T10:07:16;94546.03;;;30.00;35.95
6393;BME280;3229;42.674;23.282;2022-08-02T10:09:45;94393.81;;;29.04;36.44
6393;BME280;3229;42.674;23.282;2022-08-02T10:12:13;94428.13;;;29.29;35.74
6393;BME280;3229;42.674;23.282;2022-08-02T10:14:41;94560.06;;;30.16;35.70
6393;BME280;3229;42.674;23.282;2022-08-02T10:17:09;94330.25;;;28.69;36.19
6393;BME280;3229;42.674;23.282;2022-08-02T10:19:36;94431.81;;;29.33;35.68
6393;BME280;3229;42.674;23.282;2022-08-02T10:22:08;94472.72;;;29.56;35.76
6393;BME280;3229;42.674;23.282;2022-08-02T10:24:38;94564.25;;;30.07;36.16
6393;BME280;3229;42.674;23.282;2022-08-02T10:27:13;94561.63;;;30.07;36.51
6393;BME280;3229;42.674;23.282;2022-08-02T10:29:42;94556.88;;;30.04;36.68
6393;BME280;3229;42.674;23.282;2022-08-02T10:32:11;94550.00;;;30.08;36.47
6393;BME280;3229;42.674;23.282;2022-08-02T10:34:42;94455.28;;;29.50;36.22
6393;BME280;3229;42.674;23.282;2022-08-02T10:37:13;94363.28;;;28.97;36.78
6393;BME280;3229;42.674;23.282;2022-08-02T10:39:43;94394.91;;;29.23;36.39
6393;BME280;3229;42.674;23.282;2022-08-02T10:42:12;94546.88;;;30.21;35.96
6393;BME280;3229;42.674;23.282;2022-08-02T10:45:07;94361.97;;;29.20;35.81
6393;BME280;3229;42.674;23.282;2022-08-02T10:47:35;94516.00;;;30.06;36.20
6393;BME280;3229;42.674;23.282;2022-08-02T10:50:02;94492.75;;;29.83;36.21
6393;BME280;3229;42.674;23.282;2022-08-02T10:52:30;94504.91;;;29.94;36.00
6393;BME280;3229;42.674;23.282;2022-08-02T10:54:58;94406.78;;;29.31;36.20
6393;BME280;3229;42.674;23.282;2022-08-02T10:57:30;94545.03;;;30.21;36.66
6393;BME280;3229;42.674;23.282;2022-08-02T11:00:01;94541.59;;;30.21;36.24
6393;BME280;3229;42.674;23.282;2022-08-02T11:02:37;94544.00;;;30.22;35.81
6393;BME280;3229;42.674;23.282;2022-08-02T11:05:15;94539.50;;;30.28;36.14
6393;BME280;3229;42.674;23.282;2022-08-02T11:07:46;94416.78;;;29.49;35.80
6393;BME280;3229;42.674;23.282;2022-08-02T11:13:59;94519.72;;;30.20;36.12
6393;BME280;3229;42.674;23.282;2022-08-02T11:19:30;94533.72;;;30.31;36.45
6393;BME280;3229;42.674;23.282;2022-08-02T11:22:02;94500.44;;;30.10;36.24
6393;BME280;3229;42.674;23.282;2022-08-02T11:24:32;94532.13;;;30.20;36.39
6393;BME280;3229;42.674;23.282;2022-08-02T11:27:00;94536.59;;;30.30;35.62
6393;BME280;3229;42.674;23.282;2022-08-02T11:29:37;94508.34;;;30.05;36.02
6393;BME280;3229;42.674;23.282;2022-08-02T11:32:05;94503.84;;;30.05;36.03
6393;BME280;3229;42.674;23.282;2022-08-02T11:34:33;94444.78;;;29.65;36.64
6393;BME280;3229;42.674;23.282;2022-08-02T11:37:00;94543.72;;;30.29;36.76
6393;BME280;3229;42.674;23.282;2022-08-02T11:39:27;94536.06;;;30.17;36.45
6393;BME280;3229;42.674;23.282;2022-08-02T11:41:57;94496.22;;;29.93;36.54
6393;BME280;3229;42.674;23.282;2022-08-02T11:44:24;94507.81;;;29.97;36.39
6393;BME280;3229;42.674;23.282;2022-08-02T11:46:57;94523.91;;;30.06;36.12
6393;BME280;3229;42.674;23.282;2022-08-02T11:49:24;94533.41;;;30.12;36.75
6393;BME280;3229;42.674;23.282;2022-08-02T11:51:57;94538.41;;;30.14;36.84
6393;BME280;3229;42.674;23.282;2022-08-02T11:54:28;94510.47;;;30.03;37.08
6393;BME280;3229;42.674;23.282;2022-08-02T11:57:13;94534.47;;;30.16;37.07
6393;BME280;3229;42.674;23.282;2022-08-02T11:59:42;94513.09;;;30.03;36.63
6393;BME280;3229;42.674;23.282;2022-08-02T12:02:11;94521.00;;;30.08;37.16
6393;BME280;3229;42.674;23.282;2022-08-02T12:04:39;94527.13;;;30.18;37.14
6393;BME280;3229;42.674;23.282;2022-08-02T12:07:07;94450.59;;;29.83;36.36
6393;BME280;3229;42.674;23.282;2022-08-02T12:09:35;94517.06;;;30.26;36.46
6393;BME280;3229;42.674;23.282;2022-08-02T12:12:03;94472.47;;;29.98;36.37
6393;BME280;3229;42.674;23.282;2022-08-02T12:14:30;94524.47;;;30.29;36.47
6393;BME280;3229;42.674;23.282;2022-08-02T12:16:58;94474.31;;;29.98;36.15
6393;BME280;3229;42.674;23.282;2022-08-02T12:19:47;94506.00;;;30.23;36.55
6393;BME280;3229;42.674;23.282;2022-08-02T12:22:16;94528.66;;;30.35;36.18
6393;BME280;3229;42.674;23.282;2022-08-02T12:24:46;94513.63;;;30.30;35.19
6393;BME280;3229;42.674;23.282;2022-08-02T12:27:30;94459.81;;;29.95;35.57
6393;BME280;3229;42.674;23.282;2022-08-02T12:30:00;94466.69;;;30.02;35.88
6393;BME280;3229;42.674;23.282;2022-08-02T12:32:29;94525.50;;;30.33;35.95
6393;BME280;3229;42.674;23.282;2022-08-02T12:35:11;94526.03;;;30.35;36.06
6393;BME280;3229;42.674;23.282;2022-08-02T12:37:40;94523.66;;;30.33;35.58
6393;BME280;3229;42.674;23.282;2022-08-02T12:40:19;94486.97;;;30.11;35.82
6393;BME280;3229;42.674;23.282;2022-08-02T12:42:47;94527.88;;;30.29;35.87
6393;BME280;3229;42.674;23.282;2022-08-02T12:45:15;94504.38;;;30.12;35.76
6393;BME280;3229;42.674;23.282;2022-08-02T12:47:57;94523.66;;;30.18;35.77
6393;BME280;3229;42.674;23.282;2022-08-02T12:50:28;94525.22;;;30.14;35.92
6393;BME280;3229;42.674;23.282;2022-08-02T12:53:03;94523.94;;;30.16;35.88
6393;BME280;3229;42.674;23.282;2022-08-02T12:55:30;94507.28;;;30.00;35.84
6393;BME280;3229;42.674;23.282;2022-08-02T12:57:58;94495.94;;;30.00;36.22
6393;BME280;3229;42.674;23.282;2022-08-02T13:00:27;94449.25;;;29.70;36.35
6393;BME280;3229;42.674;23.282;2022-08-02T13:02:55;94512.03;;;30.09;36.54
6393;BME280;3229;42.674;23.282;2022-08-02T13:05:23;94494.34;;;30.04;36.95
6393;BME280;3229;42.674;23.282;2022-08-02T13:07:55;94498.56;;;30.00;36.70
6393;BME280;3229;42.674;23.282;2022-08-02T13:10:23;94511.25;;;30.08;36.73
6393;BME280;3229;42.674;23.282;2022-08-02T13:12:51;94504.91;;;29.94;37.51
6393;BME280;3229;42.674;23.282;2022-08-02T13:15:19;94512.31;;;30.02;37.51
6393;BME280;3229;42.674;23.282;2022-08-02T13:17:47;94482.50;;;29.81;36.85
6393;BME280;3229;42.674;23.282;2022-08-02T13:20:14;94512.53;;;30.00;37.19
6393;BME280;3229;42.674;23.282;2022-08-02T13:22:42;94502.28;;;29.84;36.46
6393;BME280;3229;42.674;23.282;2022-08-02T13:25:11;94496.72;;;29.85;36.87
6393;BME280;3229;42.674;23.282;2022-08-02T13:27:38;94472.97;;;29.70;36.85
6393;BME280;3229;42.674;23.282;2022-08-02T13:30:06;94466.13;;;29.69;36.95
6393;BME280;3229;42.674;23.282;2022-08-02T13:32:33;94512.81;;;29.99;37.13